createdAt,value
2023-04-15T00:01:19.645Z,8.46
2023-04-15T00:03:47.821Z,8.48
2023-04-15T00:06:15.281Z,8.49
2023-04-15T00:08:42.439Z,8.57
2023-04-15T00:11:09.668Z,8.48
2023-04-15T00:13:36.612Z,8.46
2023-04-15T00:16:06.464Z,8.46
2023-04-15T00:18:33.393Z,8.53
2023-04-15T00:21:00.478Z,8.51
2023-04-15T00:23:28.156Z,8.53
2023-04-15T00:25:55.679Z,8.59
2023-04-15T00:28:22.646Z,8.51
2023-04-15T00:30:50.457Z,8.59
2023-04-15T00:33:18.806Z,8.68
2023-04-15T00:35:46.026Z,8.71
2023-04-15T00:38:13.243Z,8.67
2023-04-15T00:40:41.418Z,8.65
2023-04-15T00:43:08.671Z,8.66
2023-04-15T00:45:35.903Z,8.60
2023-04-15T00:48:03.589Z,8.54
2023-04-15T00:50:32.932Z,8.51
2023-04-15T00:53:00.017Z,8.39
2023-04-15T00:55:27.320Z,8.52
2023-04-15T00:57:55.016Z,8.52
2023-04-15T01:00:22.771Z,8.67
2023-04-15T01:02:50.976Z,8.73
2023-04-15T01:05:19.464Z,8.74
2023-04-15T01:07:48.942Z,8.80
2023-04-15T01:10:16.218Z,8.82
2023-04-15T01:12:43.414Z,8.80
2023-04-15T01:15:11.216Z,8.84
2023-04-15T01:17:39.600Z,8.91
2023-04-15T01:20:10.577Z,8.87
2023-04-15T01:22:38.345Z,8.87
2023-04-15T01:25:13.077Z,8.85
2023-04-15T01:27:45.383Z,8.96
2023-04-15T01:30:12.724Z,8.95
2023-04-15T01:32:39.850Z,8.87
2023-04-15T01:35:07.821Z,8.79
2023-04-15T01:37:34.891Z,8.84
2023-04-15T01:40:03.354Z,8.86
2023-04-15T01:42:30.369Z,8.87
2023-04-15T01:44:59.003Z,8.89
2023-04-15T01:47:25.958Z,8.91
2023-04-15T01:49:53.245Z,8.95
2023-04-15T01:52:20.673Z,8.99
2023-04-15T01:54:48.090Z,8.96
2023-04-15T01:57:15.074Z,8.98
2023-04-15T01:59:42.704Z,8.90
2023-04-15T02:02:11.305Z,8.85
2023-04-15T02:04:39.093Z,8.79
2023-04-15T02:07:06.019Z,8.87
2023-04-15T02:09:33.696Z,8.74
2023-04-15T02:12:00.800Z,8.71
2023-04-15T02:14:28.072Z,8.92
2023-04-15T02:16:55.056Z,8.90
2023-04-15T02:19:23.790Z,8.92
2023-04-15T02:21:50.714Z,9.02
2023-04-15T02:24:17.868Z,9.14
2023-04-15T02:26:44.841Z,9.14
2023-04-15T02:29:12.268Z,9.11
2023-04-15T02:31:40.633Z,9.01
2023-04-15T02:34:08.251Z,9.21
2023-04-15T02:36:36.632Z,9.28
2023-04-15T02:39:04.424Z,9.27
2023-04-15T02:41:31.436Z,9.19
2023-04-15T02:43:58.703Z,9.31
2023-04-15T02:46:25.975Z,9.29
2023-04-15T02:48:53.923Z,9.33
2023-04-15T02:51:22.488Z,9.44
2023-04-15T02:53:51.338Z,9.55
2023-04-15T02:56:19.448Z,9.53
2023-04-15T02:58:46.988Z,9.45
2023-04-15T03:01:14.068Z,9.47
2023-04-15T03:03:41.453Z,9.53
2023-04-15T03:06:09.065Z,9.53
2023-04-15T03:08:37.064Z,9.41
2023-04-15T03:11:05.581Z,9.34
2023-04-15T03:13:32.877Z,9.24
2023-04-15T03:15:59.848Z,9.10
2023-04-15T03:18:27.177Z,9.03
2023-04-15T03:20:54.302Z,9.03
2023-04-15T03:23:21.776Z,9.05
2023-04-15T03:25:48.835Z,9.00
2023-04-15T03:28:17.472Z,8.78
2023-04-15T03:30:44.429Z,8.84
2023-04-15T03:33:12.083Z,8.72
2023-04-15T03:35:38.998Z,8.65
2023-04-15T03:38:06.510Z,8.44
2023-04-15T03:40:33.520Z,8.51
2023-04-15T03:43:00.960Z,8.45
2023-04-15T03:45:29.379Z,8.42
2023-04-15T03:48:00.596Z,8.32
2023-04-15T03:50:38.237Z,8.24
2023-04-15T03:53:06.039Z,8.12
2023-04-15T03:55:33.020Z,8.04
2023-04-15T03:58:00.272Z,7.94
2023-04-15T04:00:27.327Z,7.97
2023-04-15T04:02:56.363Z,7.93
2023-04-15T04:05:23.473Z,7.92
2023-04-15T04:07:50.677Z,7.99
2023-04-15T04:10:18.886Z,7.96
2023-04-15T04:12:46.253Z,7.95
2023-04-15T04:15:13.263Z,7.90
2023-04-15T04:17:40.814Z,7.94
2023-04-15T04:20:10.090Z,8.11
2023-04-15T04:22:38.765Z,8.25
2023-04-15T04:25:07.221Z,8.66
2023-04-15T04:27:34.409Z,8.76
2023-04-15T04:30:01.598Z,9.16
2023-04-15T04:32:28.959Z,9.72
2023-04-15T04:34:55.973Z,10.49
2023-04-15T04:37:25.125Z,11.49
2023-04-15T04:39:52.092Z,12.54
2023-04-15T04:42:19.360Z,13.67
2023-04-15T04:44:46.454Z,14.69
2023-04-15T04:47:14.151Z,15.54
2023-04-15T04:49:41.592Z,16.63
2023-04-15T04:52:09.096Z,17.71
2023-04-15T04:54:37.719Z,18.28
2023-04-15T04:57:04.970Z,18.90
2023-04-15T04:59:33.296Z,19.12
2023-04-15T05:02:00.837Z,19.80
2023-04-15T05:04:27.989Z,19.76
2023-04-15T05:06:55.566Z,20.48
2023-04-15T05:09:22.600Z,20.96
2023-04-15T05:11:51.400Z,21.85
2023-04-15T05:14:18.445Z,22.68
2023-04-15T05:16:45.791Z,23.24
2023-04-15T05:19:12.772Z,23.71
2023-04-15T05:21:40.079Z,24.10
2023-04-15T05:24:07.120Z,24.53
2023-04-15T05:26:34.440Z,24.75
2023-04-15T05:29:02.920Z,24.90
2023-04-15T05:31:30.242Z,24.85
2023-04-15T05:33:57.331Z,24.20
2023-04-15T05:36:24.707Z,23.08
2023-04-15T05:38:51.728Z,21.92
2023-04-15T05:41:19.869Z,21.04
2023-04-15T05:43:47.130Z,20.49
2023-04-15T05:46:16.014Z,20.11
2023-04-15T05:48:42.974Z,19.49
2023-04-15T05:51:10.532Z,19.09
2023-04-15T05:53:37.596Z,18.73
2023-04-15T05:56:05.186Z,18.46
2023-04-15T05:58:32.303Z,18.43
2023-04-15T06:00:59.998Z,18.28
2023-04-15T06:03:29.749Z,17.84
2023-04-15T06:05:57.013Z,17.77
2023-04-15T06:08:23.995Z,17.55
2023-04-15T06:10:51.495Z,17.60
2023-04-15T06:13:18.441Z,17.83
2023-04-15T06:15:45.670Z,17.85
2023-04-15T06:18:13.078Z,17.45
2023-04-15T06:20:41.882Z,17.25
2023-04-15T06:23:08.978Z,17.03
2023-04-15T06:25:36.286Z,16.85
2023-04-15T06:28:03.672Z,16.73
2023-04-15T06:30:30.930Z,16.77
2023-04-15T06:32:58.144Z,16.59
2023-04-15T06:35:25.523Z,16.38
2023-04-15T06:37:53.945Z,16.52
2023-04-15T06:40:21.737Z,16.61
2023-04-15T06:42:48.778Z,16.52
2023-04-15T06:45:16.037Z,16.42
2023-04-15T06:47:43.662Z,16.27
2023-04-15T06:50:11.666Z,16.17
2023-04-15T06:52:38.775Z,16.26
2023-04-15T06:55:08.773Z,16.33
2023-04-15T06:57:36.021Z,16.15
2023-04-15T07:00:05.755Z,16.09
2023-04-15T07:02:32.953Z,16.04
2023-04-15T07:05:00.663Z,15.90
2023-04-15T07:07:27.752Z,15.75
2023-04-15T07:09:54.959Z,15.76
2023-04-15T07:12:23.329Z,15.91
2023-04-15T07:14:50.721Z,15.95
2023-04-15T07:17:17.813Z,16.03
2023-04-15T07:19:45.096Z,16.11
2023-04-15T07:22:12.204Z,16.02
2023-04-15T07:24:39.624Z,16.00
2023-04-15T07:27:06.512Z,16.03
2023-04-15T07:29:36.375Z,16.20
2023-04-15T07:32:03.830Z,16.77
2023-04-15T07:34:32.823Z,16.88
2023-04-15T07:37:00.175Z,16.77
2023-04-15T07:39:27.593Z,16.72
2023-04-15T07:41:54.686Z,16.71
2023-04-15T07:44:22.015Z,16.83
2023-04-15T07:46:50.533Z,16.94
2023-04-15T07:49:19.432Z,17.00
2023-04-15T07:51:46.431Z,17.01
2023-04-15T07:54:14.095Z,16.80
2023-04-15T07:56:41.369Z,16.86
2023-04-15T07:59:09.880Z,16.96
2023-04-15T08:01:37.691Z,17.19
2023-04-15T08:04:06.702Z,17.35
2023-04-15T08:06:34.057Z,17.28
2023-04-15T08:09:01.862Z,17.22
2023-04-15T08:11:28.994Z,17.09
2023-04-15T08:13:56.610Z,16.87
2023-04-15T08:16:24.993Z,17.04
2023-04-15T08:18:53.961Z,17.14
2023-04-15T08:21:22.957Z,17.04
2023-04-15T08:23:51.508Z,16.79
2023-04-15T08:26:18.860Z,16.74
2023-04-15T08:28:46.684Z,17.02
2023-04-15T08:31:14.958Z,17.38
2023-04-15T08:33:42.743Z,17.49
2023-04-15T08:36:09.944Z,17.51
2023-04-15T08:38:38.618Z,17.50
2023-04-15T08:41:12.487Z,17.38
2023-04-15T08:43:48.206Z,17.11
2023-04-15T08:46:16.759Z,17.19
2023-04-15T08:48:44.245Z,17.17
2023-04-15T08:51:11.762Z,17.12
2023-04-15T08:53:40.508Z,17.26
2023-04-15T08:56:10.348Z,17.32
2023-04-15T08:58:38.272Z,17.36
2023-04-15T09:01:05.583Z,17.52
2023-04-15T09:03:34.822Z,17.75
2023-04-15T09:06:04.672Z,17.85
2023-04-15T09:08:32.300Z,17.93
2023-04-15T09:14:12.355Z,18.29
2023-04-15T09:17:01.065Z,18.35
2023-04-15T09:19:28.931Z,18.44
2023-04-15T09:21:59.069Z,18.35
2023-04-15T09:24:37.470Z,18.53
2023-04-15T09:27:05.187Z,18.13
2023-04-15T09:29:34.174Z,18.75
2023-04-15T09:32:11.036Z,18.51
2023-04-15T09:34:38.704Z,18.46
2023-04-15T09:37:07.625Z,18.40
2023-04-15T09:39:50.016Z,18.23
2023-04-15T09:42:23.994Z,18.22
2023-04-15T09:44:53.239Z,18.39
2023-04-15T09:47:29.311Z,18.61
2023-04-15T09:49:57.499Z,18.56
2023-04-15T09:52:24.515Z,18.40
2023-04-15T09:54:54.604Z,18.33
2023-04-15T09:57:21.941Z,18.13
2023-04-15T09:59:49.191Z,17.91
2023-04-15T10:02:20.970Z,17.91
2023-04-15T10:04:49.378Z,17.95
2023-04-15T10:07:20.615Z,18.15
2023-04-15T10:09:49.358Z,17.52
2023-04-15T10:12:18.180Z,18.60
2023-04-15T10:14:51.817Z,18.91
2023-04-15T10:17:22.815Z,19.14
2023-04-15T10:19:54.069Z,19.32
2023-04-15T10:22:22.902Z,19.56
2023-04-15T10:24:51.422Z,19.55
2023-04-15T10:27:19.050Z,19.49
2023-04-15T10:29:47.815Z,19.33
2023-04-15T10:32:15.981Z,19.61
2023-04-15T10:34:46.380Z,19.62
2023-04-15T10:37:13.489Z,19.42
2023-04-15T10:39:43.092Z,19.30
2023-04-15T10:42:11.492Z,19.08
2023-04-15T10:44:39.461Z,18.91
2023-04-15T10:47:13.894Z,19.21
2023-04-15T10:49:47.181Z,19.56
2023-04-15T10:52:15.576Z,19.84
2023-04-15T10:54:44.816Z,19.72
2023-04-15T10:57:17.525Z,19.38
2023-04-15T11:00:04.765Z,19.09
2023-04-15T11:02:44.036Z,18.72
2023-04-15T11:05:13.854Z,18.39
2023-04-15T11:07:48.697Z,18.49
2023-04-15T11:10:52.641Z,18.44
2023-04-15T11:13:22.768Z,18.32
2023-04-15T11:15:50.330Z,18.22
2023-04-15T11:18:18.759Z,18.35
2023-04-15T11:20:50.622Z,18.33
2023-04-15T11:23:18.923Z,18.77
2023-04-15T11:25:46.265Z,19.00
2023-04-15T11:28:13.709Z,19.34
2023-04-15T11:30:42.504Z,19.46
2023-04-15T11:33:12.199Z,19.56
2023-04-15T11:35:41.653Z,19.57
2023-04-15T11:38:12.099Z,19.85
2023-04-15T11:40:40.296Z,19.81
2023-04-15T11:43:09.089Z,19.49
2023-04-15T11:45:37.416Z,19.08
2023-04-15T11:48:09.272Z,18.74
2023-04-15T11:50:37.850Z,18.58
2023-04-15T11:53:08.286Z,18.67
2023-04-15T11:55:44.716Z,18.65
2023-04-15T11:58:15.618Z,18.69
2023-04-15T12:00:48.261Z,18.69
2023-04-15T12:03:20.180Z,18.64
2023-04-15T12:06:07.573Z,18.30
2023-04-15T12:09:09.807Z,18.54
2023-04-15T12:11:41.704Z,18.38
2023-04-15T12:14:16.086Z,18.72
2023-04-15T12:16:48.682Z,18.85
2023-04-15T12:19:18.861Z,18.78
2023-04-15T12:21:48.693Z,18.84
2023-04-15T12:24:19.839Z,18.86
2023-04-15T12:26:50.468Z,18.80
2023-04-15T12:29:18.036Z,18.69
2023-04-15T12:31:53.502Z,18.66
2023-04-15T12:34:27.970Z,18.63
2023-04-15T12:36:55.748Z,18.46
2023-04-15T12:39:24.566Z,18.67
2023-04-15T12:41:53.370Z,19.04
2023-04-15T12:44:22.759Z,19.13
2023-04-15T12:46:50.649Z,19.17
2023-04-15T12:49:20.072Z,19.04
2023-04-15T12:51:49.397Z,19.08
2023-04-15T12:54:16.903Z,19.21
2023-04-15T12:56:44.563Z,19.22
2023-04-15T12:59:13.041Z,19.41
2023-04-15T13:01:40.648Z,19.41
2023-04-15T13:04:08.196Z,19.32
2023-04-15T13:06:36.256Z,19.20
2023-04-15T13:09:05.247Z,19.51
2023-04-15T13:11:36.763Z,19.71
2023-04-15T13:14:06.749Z,19.78
2023-04-15T13:16:36.026Z,19.74
2023-04-15T13:19:03.625Z,19.93
2023-04-15T13:21:35.077Z,19.93
2023-04-15T13:24:02.739Z,19.93
2023-04-15T13:26:31.322Z,19.90
2023-04-15T13:28:58.360Z,19.76
2023-04-15T13:31:26.362Z,19.92
2023-04-15T13:34:04.509Z,19.83
2023-04-15T13:36:31.982Z,19.82
2023-04-15T13:38:59.968Z,19.72
2023-04-15T13:41:27.274Z,19.65
2023-04-15T13:43:54.348Z,19.52
2023-04-15T13:46:22.283Z,19.30
2023-04-15T13:48:49.835Z,19.31
2023-04-15T13:51:18.521Z,19.46
2023-04-15T13:53:45.805Z,19.45
2023-04-15T13:56:13.056Z,19.37
2023-04-15T13:58:41.227Z,19.15
2023-04-15T14:01:08.776Z,19.27
2023-04-15T14:03:36.950Z,19.41
2023-04-15T14:06:04.951Z,19.44
2023-04-15T14:08:33.657Z,19.53
2023-04-15T14:11:01.124Z,19.70
2023-04-15T14:13:28.838Z,19.81
2023-04-15T14:15:57.212Z,19.99
2023-04-15T14:18:24.210Z,20.04
2023-04-15T14:20:51.814Z,20.08
2023-04-15T14:23:18.943Z,20.11
2023-04-15T14:25:48.548Z,20.06
2023-04-15T14:28:15.831Z,20.08
2023-04-15T14:30:43.538Z,19.96
2023-04-15T14:33:10.667Z,20.24
2023-04-15T14:35:38.229Z,20.29
2023-04-15T14:38:11.003Z,20.26
2023-04-15T14:40:38.861Z,20.17
2023-04-15T14:43:07.502Z,20.29
2023-04-15T14:45:36.509Z,20.12
2023-04-15T14:48:03.811Z,20.12
2023-04-15T14:50:31.095Z,20.10
2023-04-15T14:52:58.591Z,20.05
2023-04-15T14:55:25.898Z,19.94
2023-04-15T14:57:53.103Z,19.65
2023-04-15T15:00:22.030Z,19.76
2023-04-15T15:02:49.174Z,19.72
2023-04-15T15:05:17.017Z,19.57
2023-04-15T15:07:44.050Z,19.55
2023-04-15T15:10:11.257Z,19.54
2023-04-15T15:12:38.299Z,19.39
2023-04-15T15:15:15.774Z,19.40
2023-04-15T15:17:53.980Z,19.22
2023-04-15T15:20:21.963Z,19.23
2023-04-15T15:22:49.305Z,19.19
2023-04-15T15:25:16.859Z,19.19
2023-04-15T15:27:44.097Z,19.25
2023-04-15T15:30:12.642Z,19.27
2023-04-15T15:32:40.703Z,18.74
2023-04-15T15:35:11.078Z,19.30
2023-04-15T15:37:38.613Z,19.38
2023-04-15T15:40:07.076Z,19.38
2023-04-15T15:42:34.488Z,19.27
2023-04-15T15:45:04.771Z,19.25
2023-04-15T15:47:32.173Z,19.07
2023-04-15T15:50:00.549Z,18.95
2023-04-15T15:52:28.888Z,18.86
2023-04-15T15:54:56.071Z,18.83
2023-04-15T15:57:23.258Z,18.67
2023-04-15T15:59:52.801Z,18.70
2023-04-15T16:02:52.347Z,18.68
2023-04-15T16:05:15.913Z,18.73
2023-04-15T16:07:44.219Z,18.70
2023-04-15T16:10:12.515Z,18.65
2023-04-15T16:12:39.587Z,18.62
2023-04-15T16:15:08.226Z,18.58
2023-04-15T16:17:35.528Z,18.50
2023-04-15T16:20:05.649Z,18.48
2023-04-15T16:22:32.869Z,18.40
2023-04-15T16:25:01.767Z,18.33
2023-04-15T16:27:29.026Z,18.44
2023-04-15T16:29:56.281Z,18.39
2023-04-15T16:32:23.279Z,18.33
2023-04-15T16:34:50.873Z,18.23
2023-04-15T16:37:17.898Z,18.06
2023-04-15T16:39:45.035Z,18.00
2023-04-15T16:42:13.366Z,17.92
2023-04-15T16:44:40.708Z,17.85
2023-04-15T16:47:09.778Z,17.72
2023-04-15T16:49:37.047Z,17.63
2023-04-15T16:52:04.125Z,17.76
2023-04-15T16:54:33.509Z,17.71
2023-04-15T16:57:02.057Z,17.64
2023-04-15T16:59:30.484Z,17.57
2023-04-15T17:01:57.746Z,17.48
2023-04-15T17:04:25.386Z,17.39
2023-04-15T17:06:52.418Z,17.32
2023-04-15T17:09:19.713Z,17.23
2023-04-15T17:11:46.722Z,17.14
2023-04-15T17:14:14.277Z,17.09
2023-04-15T17:16:43.239Z,17.04
2023-04-15T17:19:10.566Z,16.99
2023-04-15T17:21:37.590Z,16.94
2023-04-15T17:24:06.096Z,16.88
2023-04-15T17:26:33.176Z,16.81
2023-04-15T17:29:00.424Z,16.74
2023-04-15T17:31:29.665Z,16.66
2023-04-15T17:34:09.990Z,16.59
2023-04-15T17:36:38.055Z,16.54
2023-04-15T17:39:05.583Z,16.45
2023-04-15T17:41:32.785Z,16.37
2023-04-15T17:44:00.505Z,16.13
2023-04-15T17:46:29.076Z,16.05
2023-04-15T17:48:56.415Z,16.03
2023-04-15T17:51:24.867Z,16.00
2023-04-15T17:53:52.177Z,15.94
2023-04-15T17:56:19.264Z,15.92
2023-04-15T17:58:46.666Z,15.88
2023-04-15T18:01:13.681Z,15.83
2023-04-15T18:03:41.117Z,15.81
2023-04-15T18:06:08.230Z,15.77
2023-04-15T18:08:36.936Z,15.70
2023-04-15T18:11:04.708Z,15.60
2023-04-15T18:13:32.262Z,15.50
2023-04-15T18:15:59.298Z,15.42
2023-04-15T18:18:26.643Z,15.35
2023-04-15T18:20:53.589Z,15.34
2023-04-15T18:23:21.056Z,15.29
2023-04-15T18:25:49.811Z,14.84
2023-04-15T18:28:17.095Z,14.99
2023-04-15T18:30:44.194Z,15.00
2023-04-15T18:33:12.319Z,14.88
2023-04-15T18:35:39.313Z,14.95
2023-04-15T18:38:06.485Z,14.69
2023-04-15T18:40:33.606Z,14.84
2023-04-15T18:43:02.163Z,14.82
2023-04-15T18:45:30.044Z,14.66
2023-04-15T18:48:00.220Z,14.70
2023-04-15T18:50:27.265Z,14.39
2023-04-15T18:52:54.613Z,14.59
2023-04-15T18:55:23.835Z,14.40
2023-04-15T18:57:51.563Z,14.30
2023-04-15T19:00:19.979Z,14.04
2023-04-15T19:02:47.276Z,14.14
2023-04-15T19:05:14.396Z,13.91
2023-04-15T19:07:42.059Z,14.05
2023-04-15T19:10:09.494Z,14.04
2023-04-15T19:12:37.067Z,14.05
2023-04-15T19:15:04.363Z,14.09
2023-04-15T19:17:33.317Z,14.12
2023-04-15T19:20:00.566Z,14.22
2023-04-15T19:22:29.943Z,14.14
2023-04-15T19:24:56.813Z,14.28
2023-04-15T19:27:24.032Z,14.05
2023-04-15T19:29:50.954Z,14.06
2023-04-15T19:32:18.240Z,14.33
2023-04-15T19:34:46.653Z,14.30
2023-04-15T19:37:14.742Z,14.35
2023-04-15T19:39:41.884Z,14.29
2023-04-15T19:42:09.713Z,14.31
2023-04-15T19:44:37.402Z,14.17
2023-04-15T19:47:04.638Z,14.24
2023-04-15T19:49:31.725Z,14.11
2023-04-15T19:52:00.370Z,14.19
2023-04-15T19:54:27.482Z,14.20
2023-04-15T19:56:54.851Z,14.16
2023-04-15T19:59:21.900Z,14.19
2023-04-15T20:01:49.259Z,14.22
2023-04-15T20:04:16.755Z,14.24
2023-04-15T20:06:44.099Z,14.24
2023-04-15T20:09:12.577Z,14.28
2023-04-15T20:12:45.941Z,14.28
2023-04-15T20:14:27.400Z,14.28
2023-04-15T20:16:54.738Z,14.24
2023-04-15T20:19:21.716Z,14.18
2023-04-15T20:21:50.321Z,14.20
2023-04-15T20:24:21.464Z,14.16
2023-04-15T20:26:48.981Z,14.11
2023-04-15T20:29:16.021Z,14.10
2023-04-15T20:31:43.410Z,14.02
2023-04-15T20:34:12.141Z,14.00
2023-04-15T20:36:39.298Z,13.92
2023-04-15T20:39:06.396Z,13.91
2023-04-15T20:41:35.342Z,13.85
2023-04-15T20:44:02.380Z,13.80
2023-04-15T20:46:29.595Z,13.68
2023-04-15T20:48:56.538Z,13.47
2023-04-15T20:51:23.815Z,13.45
2023-04-15T20:53:51.247Z,13.49
2023-04-15T20:56:18.624Z,13.53
2023-04-15T20:58:47.001Z,13.49
2023-04-15T21:01:14.355Z,13.37
2023-04-15T21:03:41.563Z,13.42
2023-04-15T21:06:08.891Z,13.37
2023-04-15T21:08:35.949Z,13.31
2023-04-15T21:11:03.418Z,13.23
2023-04-15T21:13:30.416Z,13.14
2023-04-15T21:15:59.107Z,13.23
2023-04-15T21:18:26.120Z,13.24
2023-04-15T21:20:56.849Z,13.26
2023-04-15T21:23:23.973Z,13.27
2023-04-15T21:25:51.536Z,13.14
2023-04-15T21:28:18.492Z,13.17
2023-04-15T21:30:46.196Z,13.09
2023-04-15T21:33:14.618Z,13.23
2023-04-15T21:35:41.935Z,13.23
2023-04-15T21:38:08.936Z,13.21
2023-04-15T21:40:40.330Z,13.04
2023-04-15T21:43:07.661Z,13.10
2023-04-15T21:45:35.137Z,13.03
2023-04-15T21:48:07.549Z,12.92
2023-04-15T21:50:37.486Z,12.91
2023-04-15T21:53:06.486Z,12.78
2023-04-15T21:55:33.744Z,12.91
2023-04-15T21:58:00.656Z,12.91
2023-04-15T22:00:28.014Z,12.88
2023-04-15T22:02:55.508Z,12.78
2023-04-15T22:05:22.909Z,12.79
2023-04-15T22:07:51.556Z,12.72
2023-04-15T22:10:19.587Z,12.74
2023-04-15T22:12:46.528Z,12.74
2023-04-15T22:15:14.761Z,12.69
2023-04-15T22:17:41.672Z,12.55
2023-04-15T22:20:09.966Z,12.68
2023-04-15T22:22:43.971Z,12.64
2023-04-15T22:25:16.456Z,12.49
2023-04-15T22:27:43.382Z,12.58
2023-04-15T22:30:11.528Z,12.57
2023-04-15T22:32:38.487Z,12.54
2023-04-15T22:35:06.704Z,12.48
2023-04-15T22:37:33.715Z,12.47
2023-04-15T22:40:01.988Z,12.40
2023-04-15T22:42:30.422Z,12.33
2023-04-15T22:44:57.689Z,12.16
2023-04-15T22:47:24.724Z,12.13
2023-04-15T22:49:51.932Z,11.97
2023-04-15T22:52:27.496Z,11.86
2023-04-15T22:54:57.610Z,11.70
2023-04-15T22:57:24.486Z,11.77
2023-04-15T22:59:53.075Z,11.71
2023-04-15T23:02:20.554Z,11.66
2023-04-15T23:04:48.057Z,11.60
2023-04-15T23:07:15.074Z,11.37
2023-04-15T23:09:42.305Z,11.52
2023-04-15T23:12:09.500Z,11.49
2023-04-15T23:14:36.801Z,11.40
2023-04-15T23:17:05.544Z,11.34
2023-04-15T23:19:32.941Z,11.31
2023-04-15T23:21:59.933Z,11.27
2023-04-15T23:24:27.190Z,11.28
2023-04-15T23:26:54.768Z,11.28
2023-04-15T23:29:22.031Z,11.23
2023-04-15T23:31:49.029Z,11.17
2023-04-15T23:34:17.712Z,11.11
2023-04-15T23:36:44.627Z,10.90
2023-04-15T23:39:12.108Z,11.08
2023-04-15T23:41:39.140Z,10.96
2023-04-15T23:44:07.173Z,10.94
2023-04-15T23:46:34.083Z,11.06
2023-04-15T23:49:01.231Z,11.00
2023-04-15T23:51:29.418Z,10.98
2023-04-15T23:53:56.735Z,10.98
2023-04-15T23:56:23.697Z,10.93
2023-04-15T23:58:51.049Z,10.90
